createdAt,value
2022-11-01T00:00:49.881Z,11.05
2022-11-01T00:03:19.676Z,11.02
2022-11-01T00:05:49.457Z,11.12
2022-11-01T00:08:19.369Z,11.27
2022-11-01T00:10:49.526Z,11.27
2022-11-01T00:13:19.547Z,11.26
2022-11-01T00:15:49.325Z,11.30
2022-11-01T00:18:19.051Z,11.41
2022-11-01T00:20:48.763Z,11.36
2022-11-01T00:23:19.348Z,11.41
2022-11-01T00:25:49.112Z,11.38
2022-11-01T00:28:19.058Z,11.33
2022-11-01T00:30:54.574Z,11.46
2022-11-01T00:33:25.935Z,11.51
2022-11-01T00:35:54.501Z,11.41
2022-11-01T00:38:24.304Z,11.38
2022-11-01T00:40:53.985Z,11.30
2022-11-01T00:43:24.296Z,11.24
2022-11-01T00:45:54.297Z,11.16
2022-11-01T00:48:24.418Z,11.06
2022-11-01T00:50:54.909Z,10.91
2022-11-01T00:53:24.731Z,10.82
2022-11-01T00:56:02.374Z,10.75
2022-11-01T00:58:32.281Z,10.67
2022-11-01T01:01:03.062Z,10.63
2022-11-01T01:03:32.484Z,10.66
2022-11-01T01:06:02.596Z,10.67
2022-11-01T01:08:32.713Z,10.78
2022-11-01T01:11:02.506Z,10.92
2022-11-01T01:13:32.403Z,10.91
2022-11-01T01:16:09.741Z,10.95
2022-11-01T01:18:40.820Z,10.94
2022-11-01T01:21:10.248Z,10.90
2022-11-01T01:23:40.035Z,10.91
2022-11-01T01:26:11.766Z,11.02
2022-11-01T01:28:43.788Z,11.04
2022-11-01T01:31:14.917Z,11.10
2022-11-01T01:33:44.705Z,11.27
2022-11-01T01:36:15.577Z,11.18
2022-11-01T01:38:44.667Z,11.16
2022-11-01T01:41:32.937Z,11.04
2022-11-01T01:44:03.633Z,10.96
2022-11-01T01:46:33.632Z,10.80
2022-11-01T01:49:03.309Z,10.69
2022-11-01T01:51:33.175Z,10.57
2022-11-01T01:54:02.959Z,10.46
2022-11-01T01:56:37.881Z,10.34
2022-11-01T01:59:11.159Z,10.28
2022-11-01T02:01:42.173Z,10.21
2022-11-01T02:04:50.925Z,10.14
2022-11-01T02:07:19.677Z,10.06
2022-11-01T02:09:49.764Z,9.99
2022-11-01T02:12:19.930Z,9.90
2022-11-01T02:14:49.481Z,9.84
2022-11-01T02:18:17.419Z,9.74
2022-11-01T02:21:28.932Z,9.68
2022-11-01T02:24:46.711Z,9.61
2022-11-01T02:28:01.158Z,9.56
2022-11-01T02:31:30.097Z,9.51
2022-11-01T02:34:59.056Z,9.43
2022-11-01T02:38:33.758Z,9.43
2022-11-01T02:41:25.549Z,9.37
2022-11-01T02:44:25.175Z,9.33
2022-11-01T02:47:02.808Z,9.32
2022-11-01T02:49:47.767Z,9.37
2022-11-01T02:52:28.434Z,9.42
2022-11-01T02:55:07.305Z,9.58
2022-11-01T02:57:41.594Z,9.79
2022-11-01T03:00:36.217Z,9.84
2022-11-01T03:03:36.268Z,9.76
2022-11-01T03:06:08.948Z,9.68
2022-11-01T03:08:59.262Z,9.57
2022-11-01T03:12:01.788Z,9.65
2022-11-01T03:15:01.296Z,9.67
2022-11-01T03:17:59.377Z,9.66
2022-11-01T03:20:49.274Z,9.69
2022-11-01T03:23:45.930Z,9.61
2022-11-01T03:26:28.843Z,9.56
2022-11-01T03:29:09.250Z,9.53
2022-11-01T03:31:44.244Z,9.46
2022-11-01T03:34:20.433Z,9.40
2022-11-01T03:37:01.159Z,9.33
2022-11-01T03:39:48.321Z,9.31
2022-11-01T03:42:24.906Z,9.30
2022-11-01T03:45:09.403Z,9.27
2022-11-01T03:47:39.587Z,9.25
2022-11-01T03:50:24.513Z,9.23
2022-11-01T03:52:55.953Z,9.21
2022-11-01T03:55:26.617Z,9.16
2022-11-01T03:58:00.664Z,9.15
2022-11-01T04:00:38.272Z,9.13
2022-11-01T04:03:11.055Z,9.09
2022-11-01T04:05:43.080Z,9.06
2022-11-01T04:08:13.128Z,9.01
2022-11-01T04:10:44.832Z,9.03
2022-11-01T04:13:14.951Z,9.05
2022-11-01T04:16:03.647Z,9.11
2022-11-01T04:18:52.364Z,9.10
2022-11-01T04:21:26.568Z,9.09
2022-11-01T04:23:56.656Z,9.04
2022-11-01T04:26:27.288Z,8.99
2022-11-01T04:28:57.783Z,8.95
2022-11-01T04:31:36.824Z,8.90
2022-11-01T04:34:06.810Z,8.91
2022-11-01T04:36:38.495Z,9.02
2022-11-01T04:39:09.343Z,9.13
2022-11-01T04:41:39.501Z,9.24
2022-11-01T04:44:09.526Z,9.23
2022-11-01T04:46:39.524Z,9.21
2022-11-01T04:49:09.628Z,9.34
2022-11-01T04:51:41.598Z,9.38
2022-11-01T04:54:11.823Z,9.42
2022-11-01T04:56:41.825Z,9.40
2022-11-01T04:59:11.839Z,9.43
2022-11-01T05:01:41.983Z,9.56
2022-11-01T05:04:12.106Z,9.56
2022-11-01T05:06:42.177Z,9.55
2022-11-01T05:09:12.181Z,9.56
2022-11-01T05:11:42.175Z,9.59
2022-11-01T05:14:12.308Z,9.58
2022-11-01T05:16:42.328Z,9.55
2022-11-01T05:19:12.403Z,9.56
2022-11-01T05:21:42.509Z,9.59
2022-11-01T05:24:12.511Z,9.74
2022-11-01T05:26:44.854Z,9.70
2022-11-01T05:32:05.126Z,9.69
2022-11-01T05:34:35.131Z,9.64
2022-11-01T05:37:05.139Z,9.61
2022-11-01T05:39:35.211Z,9.64
2022-11-01T05:42:09.628Z,9.63
2022-11-01T05:44:39.961Z,9.60
2022-11-01T05:47:12.218Z,9.64
2022-11-01T05:49:46.272Z,9.64
2022-11-01T05:52:16.271Z,9.66
2022-11-01T05:54:46.298Z,9.62
2022-11-01T05:57:16.306Z,9.60
2022-11-01T05:59:46.314Z,9.58
2022-11-01T06:02:16.515Z,9.60
2022-11-01T06:04:46.564Z,9.57
2022-11-01T06:07:16.824Z,9.56
2022-11-01T06:09:49.540Z,9.53
2022-11-01T06:12:19.863Z,9.55
2022-11-01T06:14:49.861Z,9.57
2022-11-01T06:17:19.952Z,9.70
2022-11-01T06:19:49.982Z,9.63
2022-11-01T06:22:20.014Z,9.61
2022-11-01T06:24:52.579Z,9.61
2022-11-01T06:27:22.610Z,9.62
2022-11-01T06:29:52.616Z,9.64
2022-11-01T06:32:23.243Z,9.67
2022-11-01T06:34:53.380Z,9.69
2022-11-01T06:37:23.434Z,9.69
2022-11-01T06:39:53.443Z,9.72
2022-11-01T06:42:25.086Z,9.80
2022-11-01T06:44:55.083Z,9.85
2022-11-01T06:47:25.849Z,9.86
2022-11-01T06:49:55.966Z,9.89
2022-11-01T06:52:26.026Z,9.94
2022-11-01T06:54:56.118Z,9.98
2022-11-01T06:57:27.350Z,9.99
2022-11-01T06:59:58.482Z,10.02
2022-11-01T07:02:29.905Z,10.07
2022-11-01T07:05:00.337Z,10.15
2022-11-01T07:07:30.335Z,10.19
2022-11-01T07:10:01.313Z,10.21
2022-11-01T07:12:31.355Z,10.25
2022-11-01T07:15:01.950Z,10.32
2022-11-01T07:17:31.993Z,10.28
2022-11-01T07:20:02.072Z,10.33
2022-11-01T07:22:32.070Z,10.37
2022-11-01T07:25:02.110Z,10.34
2022-11-01T07:27:35.902Z,10.37
2022-11-01T07:30:07.869Z,10.43
2022-11-01T07:32:39.027Z,10.43
2022-11-01T07:35:10.496Z,10.46
2022-11-01T07:37:41.061Z,10.53
2022-11-01T07:40:13.115Z,10.62
2022-11-01T07:42:45.945Z,10.64
2022-11-01T07:45:17.469Z,10.70
2022-11-01T07:47:48.017Z,10.74
2022-11-01T07:50:19.488Z,10.78
2022-11-01T07:52:59.507Z,10.81
2022-11-01T07:55:29.661Z,10.87
2022-11-01T07:57:59.914Z,10.92
2022-11-01T08:00:30.643Z,10.99
2022-11-01T08:03:17.462Z,11.03
2022-11-01T08:05:48.991Z,11.10
2022-11-01T08:08:21.986Z,11.11
2022-11-01T08:10:52.052Z,11.16
2022-11-01T08:13:26.670Z,11.24
2022-11-01T08:16:00.121Z,11.35
2022-11-01T08:18:30.455Z,11.43
2022-11-01T08:21:00.502Z,11.64
2022-11-01T08:23:30.500Z,11.71
2022-11-01T08:26:00.572Z,11.87
2022-11-01T08:28:30.727Z,11.98
2022-11-01T08:31:10.590Z,12.06
2022-11-01T08:33:40.598Z,12.14
2022-11-01T08:36:10.608Z,12.22
2022-11-01T08:38:40.639Z,12.34
2022-11-01T08:41:10.653Z,12.38
2022-11-01T08:43:40.975Z,12.48
2022-11-01T08:46:11.097Z,12.57
2022-11-01T08:48:41.150Z,12.66
2022-11-01T08:51:11.175Z,12.70
2022-11-01T08:53:41.200Z,12.76
2022-11-01T08:56:11.899Z,12.77
2022-11-01T08:58:42.034Z,12.82
2022-11-01T09:01:12.792Z,12.97
2022-11-01T09:03:42.997Z,13.16
2022-11-01T09:06:14.405Z,13.28
2022-11-01T09:08:44.528Z,13.49
2022-11-01T09:11:14.622Z,13.60
2022-11-01T09:13:44.796Z,13.76
2022-11-01T09:16:15.118Z,13.75
2022-11-01T09:18:45.781Z,13.73
2022-11-01T09:21:17.251Z,13.87
2022-11-01T09:23:47.548Z,14.00
2022-11-01T09:26:17.814Z,13.89
2022-11-01T09:28:47.892Z,13.88
2022-11-01T09:31:21.766Z,13.85
2022-11-01T09:33:57.361Z,13.82
2022-11-01T09:36:29.882Z,13.68
2022-11-01T09:39:00.026Z,13.76
2022-11-01T09:42:02.005Z,13.79
2022-11-01T09:44:49.929Z,13.99
2022-11-01T09:47:30.317Z,13.92
2022-11-01T09:50:27.120Z,14.02
2022-11-01T09:53:00.039Z,14.06
2022-11-01T09:56:10.408Z,13.90
2022-11-01T09:59:24.572Z,13.96
2022-11-01T10:02:50.309Z,13.99
2022-11-01T10:05:58.577Z,14.02
2022-11-01T10:09:22.342Z,13.99
2022-11-01T10:12:41.547Z,14.02
2022-11-01T10:15:22.917Z,14.06
2022-11-01T10:18:06.145Z,14.14
2022-11-01T10:20:41.692Z,14.16
2022-11-01T10:23:24.725Z,14.22
2022-11-01T10:25:55.003Z,14.34
2022-11-01T10:28:46.439Z,14.41
2022-11-01T10:31:24.749Z,14.51
2022-11-01T10:34:20.808Z,14.60
2022-11-01T10:37:01.122Z,14.76
2022-11-01T10:39:57.949Z,14.91
2022-11-01T10:42:34.073Z,14.92
2022-11-01T10:45:15.785Z,14.94
2022-11-01T10:47:58.467Z,15.07
2022-11-01T10:50:31.055Z,15.05
2022-11-01T10:53:13.431Z,15.19
2022-11-01T10:55:57.747Z,15.36
2022-11-01T10:59:10.514Z,15.60
2022-11-01T11:01:45.168Z,15.87
2022-11-01T11:04:23.520Z,16.01
2022-11-01T11:06:53.807Z,16.26
2022-11-01T11:09:31.145Z,16.32
2022-11-01T11:12:20.164Z,16.48
2022-11-01T11:15:04.096Z,16.63
2022-11-01T11:17:45.048Z,16.50
2022-11-01T11:20:26.476Z,16.47
2022-11-01T11:23:03.081Z,16.40
2022-11-01T11:25:37.428Z,16.42
2022-11-01T11:28:32.938Z,16.32
2022-11-01T11:31:31.901Z,16.37
2022-11-01T11:34:35.388Z,16.31
2022-11-01T11:37:21.669Z,16.19
2022-11-01T11:40:15.932Z,16.05
2022-11-01T11:42:54.175Z,15.93
2022-11-01T11:45:31.308Z,15.88
2022-11-01T11:48:24.083Z,15.86
2022-11-01T11:51:05.769Z,15.77
2022-11-01T11:53:35.837Z,15.70
2022-11-01T11:56:09.372Z,15.58
2022-11-01T11:58:48.724Z,15.56
2022-11-01T12:01:26.829Z,15.50
2022-11-01T12:04:12.186Z,15.41
2022-11-01T12:06:46.996Z,15.38
2022-11-01T12:09:48.113Z,15.32
2022-11-01T12:12:27.208Z,15.23
2022-11-01T12:15:00.535Z,15.34
2022-11-01T12:17:47.119Z,15.41
2022-11-01T12:20:26.790Z,15.48
2022-11-01T12:23:21.686Z,15.41
2022-11-01T12:25:54.386Z,15.44
2022-11-01T12:28:48.243Z,15.41
2022-11-01T12:31:22.253Z,15.54
2022-11-01T12:34:25.985Z,15.65
2022-11-01T12:37:31.604Z,15.75
2022-11-01T12:40:26.815Z,15.78
2022-11-01T12:43:21.351Z,15.72
2022-11-01T12:45:59.788Z,15.72
2022-11-01T12:48:38.803Z,15.66
2022-11-01T12:51:27.058Z,15.62
2022-11-01T12:54:12.229Z,15.45
2022-11-01T12:56:45.081Z,15.43
2022-11-01T12:59:34.099Z,15.37
2022-11-01T13:02:49.466Z,15.33
2022-11-01T13:05:45.031Z,15.38
2022-11-01T13:08:59.187Z,15.47
2022-11-01T13:12:10.090Z,15.44
2022-11-01T13:14:55.358Z,15.60
2022-11-01T13:18:28.254Z,15.74
2022-11-01T13:21:34.562Z,15.78
2022-11-01T13:24:35.660Z,15.79
2022-11-01T13:27:30.922Z,15.88
2022-11-01T13:30:14.922Z,15.88
2022-11-01T13:33:39.310Z,15.97
2022-11-01T13:37:06.109Z,15.81
2022-11-01T13:40:12.651Z,15.83
2022-11-01T13:43:11.854Z,16.09
2022-11-01T13:46:03.296Z,16.24
2022-11-01T13:48:57.307Z,16.26
2022-11-01T13:52:03.152Z,16.15
2022-11-01T13:55:15.946Z,16.10
2022-11-01T13:57:46.846Z,16.02
2022-11-01T14:00:52.515Z,16.03
2022-11-01T14:03:29.745Z,15.91
2022-11-01T14:06:08.381Z,15.84
2022-11-01T14:08:48.472Z,15.79
2022-11-01T14:11:51.070Z,15.74
2022-11-01T14:14:29.875Z,15.74
2022-11-01T14:17:18.952Z,15.70
2022-11-01T14:20:00.754Z,15.59
2022-11-01T14:22:33.763Z,15.55
2022-11-01T14:25:23.600Z,15.47
2022-11-01T14:28:18.368Z,15.54
2022-11-01T14:30:53.438Z,15.55
2022-11-01T14:33:23.954Z,15.55
2022-11-01T14:35:58.550Z,15.53
2022-11-01T14:39:00.798Z,15.56
2022-11-01T14:41:41.118Z,15.53
2022-11-01T14:44:34.899Z,15.54
2022-11-01T14:47:43.812Z,15.44
2022-11-01T14:50:46.083Z,15.29
2022-11-01T14:53:41.422Z,15.18
2022-11-01T14:56:11.353Z,15.13
2022-11-01T14:58:41.627Z,15.06
2022-11-01T15:01:23.647Z,15.01
2022-11-01T15:04:00.462Z,14.94
2022-11-01T15:06:31.436Z,14.85
2022-11-01T15:09:04.270Z,14.81
2022-11-01T15:11:35.788Z,14.65
2022-11-01T15:14:09.015Z,14.59
2022-11-01T15:16:43.908Z,14.56
2022-11-01T15:19:28.022Z,14.45
2022-11-01T15:22:03.511Z,14.34
2022-11-01T15:24:35.487Z,14.17
2022-11-01T15:27:21.294Z,14.10
2022-11-01T15:29:51.817Z,13.98
2022-11-01T15:32:35.542Z,13.83
2022-11-01T15:35:26.753Z,13.71
2022-11-01T15:37:57.965Z,13.60
2022-11-01T15:40:37.258Z,13.49
2022-11-01T15:43:07.389Z,13.35
2022-11-01T15:45:38.780Z,13.24
2022-11-01T15:48:20.607Z,13.07
2022-11-01T15:51:03.335Z,12.99
2022-11-01T15:53:39.320Z,12.88
2022-11-01T15:56:22.950Z,12.78
2022-11-01T15:59:04.188Z,12.62
2022-11-01T16:01:34.606Z,12.51
2022-11-01T16:04:12.855Z,12.35
2022-11-01T16:07:01.958Z,12.25
2022-11-01T16:09:37.536Z,12.18
2022-11-01T16:12:24.198Z,12.12
2022-11-01T16:15:08.056Z,12.04
2022-11-01T16:17:42.344Z,11.94
2022-11-01T16:20:40.933Z,11.80
2022-11-01T16:23:28.891Z,11.72
2022-11-01T16:26:11.965Z,11.67
2022-11-01T16:28:46.453Z,11.65
2022-11-01T16:31:28.986Z,11.68
2022-11-01T16:33:58.934Z,11.64
2022-11-01T16:36:31.831Z,11.62
2022-11-01T16:39:02.334Z,11.64
2022-11-01T16:41:39.916Z,11.60
2022-11-01T16:44:16.296Z,11.57
2022-11-01T16:46:46.533Z,11.52
2022-11-01T16:49:31.882Z,11.50
2022-11-01T16:52:01.364Z,11.49
2022-11-01T16:54:31.346Z,11.46
2022-11-01T16:57:03.772Z,11.48
2022-11-01T16:59:35.613Z,11.45
2022-11-01T17:02:30.039Z,11.34
2022-11-01T17:05:21.223Z,11.29
2022-11-01T17:07:49.369Z,11.27
2022-11-01T17:10:25.738Z,11.24
2022-11-01T17:12:57.864Z,11.21
2022-11-01T17:15:29.294Z,11.14
2022-11-01T17:18:12.711Z,11.07
2022-11-01T17:20:46.520Z,10.98
2022-11-01T17:23:24.168Z,10.93
2022-11-01T17:25:56.210Z,10.91
2022-11-01T17:28:26.685Z,10.87
2022-11-01T17:30:57.637Z,10.88
2022-11-01T17:33:27.657Z,10.86
2022-11-01T17:36:00.850Z,10.83
2022-11-01T17:38:34.804Z,10.77
2022-11-01T17:41:11.001Z,10.73
2022-11-01T17:43:41.028Z,10.67
2022-11-01T17:46:24.195Z,10.61
2022-11-01T17:48:54.181Z,10.56
2022-11-01T17:51:24.297Z,10.51
2022-11-01T17:53:59.020Z,10.45
2022-11-01T17:56:29.370Z,10.42
2022-11-01T17:58:59.547Z,10.32
2022-11-01T18:01:30.557Z,10.24
2022-11-01T18:04:00.798Z,10.19
2022-11-01T18:06:30.795Z,10.10
2022-11-01T18:09:00.897Z,10.04
2022-11-01T18:12:33.321Z,9.97
2022-11-01T18:15:42.849Z,9.93
2022-11-01T18:18:53.746Z,9.77
2022-11-01T18:21:32.320Z,9.74
2022-11-01T18:24:18.377Z,9.70
2022-11-01T18:26:51.623Z,9.67
2022-11-01T18:29:23.696Z,9.68
2022-11-01T18:32:26.049Z,9.63
2022-11-01T18:36:11.948Z,9.57
2022-11-01T18:38:59.358Z,9.51
2022-11-01T18:41:27.516Z,9.45
2022-11-01T18:43:57.880Z,9.37
2022-11-01T18:46:50.471Z,9.35
2022-11-01T18:49:28.266Z,9.33
2022-11-01T18:51:58.842Z,9.28
2022-11-01T18:54:33.142Z,9.26
2022-11-01T18:57:17.382Z,9.19
2022-11-01T18:59:52.983Z,9.12
2022-11-01T19:02:31.230Z,9.12
2022-11-01T19:05:20.169Z,9.15
2022-11-01T19:08:11.295Z,9.13
2022-11-01T19:10:42.430Z,9.10
2022-11-01T19:13:31.637Z,9.05
2022-11-01T19:16:03.129Z,9.00
2022-11-01T19:18:36.119Z,8.95
2022-11-01T19:21:18.875Z,8.93
2022-11-01T19:23:56.410Z,8.90
2022-11-01T19:26:36.708Z,8.85
2022-11-01T19:29:20.243Z,8.79
2022-11-01T19:32:02.410Z,8.73
2022-11-01T19:34:40.786Z,8.69
2022-11-01T19:37:33.044Z,8.66
2022-11-01T19:40:27.970Z,8.62
2022-11-01T19:43:12.677Z,8.57
2022-11-01T19:45:56.263Z,8.55
2022-11-01T19:48:30.710Z,8.52
2022-11-01T19:51:00.141Z,8.44
2022-11-01T19:53:37.942Z,8.39
2022-11-01T19:56:26.302Z,8.33
2022-11-01T19:59:00.428Z,8.29
2022-11-01T20:01:45.459Z,8.28
2022-11-01T20:04:29.176Z,8.27
2022-11-01T20:07:13.845Z,8.25
2022-11-01T20:09:43.398Z,8.24
2022-11-01T20:12:21.998Z,8.21
2022-11-01T20:14:52.365Z,8.18
2022-11-01T20:17:22.366Z,8.15
2022-11-01T20:19:53.761Z,8.15
2022-11-01T20:22:24.216Z,8.15
2022-11-01T20:24:54.194Z,8.11
2022-11-01T20:27:24.308Z,8.08
2022-11-01T20:29:54.333Z,8.04
2022-11-01T20:32:24.416Z,8.04
2022-11-01T20:34:54.467Z,8.04
2022-11-01T20:37:29.257Z,8.05
2022-11-01T20:39:57.771Z,8.00
2022-11-01T20:42:27.084Z,7.99
2022-11-01T20:44:56.809Z,7.95
2022-11-01T20:47:26.827Z,7.93
2022-11-01T20:49:56.982Z,7.85
2022-11-01T20:52:39.271Z,7.82
2022-11-01T20:55:13.247Z,7.81
2022-11-01T20:57:42.891Z,7.78
2022-11-01T21:00:15.980Z,7.74
2022-11-01T21:02:48.137Z,7.73
2022-11-01T21:05:25.648Z,7.67
2022-11-01T21:08:15.734Z,7.65
2022-11-01T21:10:45.824Z,7.59
2022-11-01T21:13:24.547Z,7.57
2022-11-01T21:15:59.528Z,7.55
2022-11-01T21:18:44.484Z,7.53
2022-11-01T21:21:14.324Z,7.51
2022-11-01T21:23:46.276Z,7.45
2022-11-01T21:26:22.870Z,7.44
2022-11-01T21:29:02.712Z,7.45
2022-11-01T21:31:39.037Z,7.42
2022-11-01T21:34:12.033Z,7.42
2022-11-01T21:36:52.414Z,7.39
2022-11-01T21:39:33.097Z,7.38
2022-11-01T21:42:30.401Z,7.37
2022-11-01T21:45:28.742Z,7.29
2022-11-01T21:48:16.588Z,7.24
2022-11-01T21:50:46.806Z,7.20
2022-11-01T21:53:16.867Z,7.16
2022-11-01T21:55:46.691Z,7.16
2022-11-01T21:58:16.501Z,7.17
2022-11-01T22:00:46.203Z,7.19
2022-11-01T22:03:16.091Z,7.16
2022-11-01T22:05:45.694Z,7.15
2022-11-01T22:08:15.400Z,7.13
2022-11-01T22:10:45.106Z,7.12
2022-11-01T22:13:15.242Z,7.16
2022-11-01T22:15:44.688Z,7.12
2022-11-01T22:18:14.374Z,7.10
2022-11-01T22:20:44.161Z,7.08
2022-11-01T22:23:13.868Z,7.05
2022-11-01T22:25:43.689Z,7.03
2022-11-01T22:28:13.672Z,6.96
2022-11-01T22:30:46.233Z,6.94
2022-11-01T22:33:16.172Z,6.95
2022-11-01T22:35:43.805Z,6.94
2022-11-01T22:38:25.504Z,6.88
2022-11-01T22:41:05.184Z,6.83
2022-11-01T22:43:39.075Z,6.86
2022-11-01T22:46:57.990Z,6.84
2022-11-01T22:49:43.348Z,6.79
2022-11-01T22:52:29.663Z,6.80
2022-11-01T22:55:11.127Z,6.81
2022-11-01T22:58:28.689Z,6.78
2022-11-01T23:01:02.426Z,6.74
2022-11-01T23:03:41.886Z,6.72
2022-11-01T23:06:35.058Z,6.70
2022-11-01T23:09:18.934Z,6.70
2022-11-01T23:12:15.675Z,6.70
2022-11-01T23:14:45.886Z,6.68
2022-11-01T23:17:26.466Z,6.64
2022-11-01T23:20:01.636Z,6.61
2022-11-01T23:22:36.700Z,6.56
2022-11-01T23:25:09.374Z,6.53
2022-11-01T23:27:45.000Z,6.53
2022-11-01T23:30:15.046Z,6.49
2022-11-01T23:32:45.068Z,6.46
2022-11-01T23:35:22.142Z,6.45
2022-11-01T23:37:58.162Z,6.39
2022-11-01T23:40:33.923Z,6.35
2022-11-01T23:43:02.568Z,6.35
2022-11-01T23:45:34.948Z,6.35
2022-11-01T23:48:05.129Z,6.32
2022-11-01T23:50:37.368Z,6.33
2022-11-01T23:53:15.682Z,6.29
2022-11-01T23:55:52.201Z,6.28
2022-11-01T23:58:33.165Z,6.23
